Aérodrome :
LOGIN :

S'inscrire | Disclaimer

   EN    FR    IT 

 










Légende :    VFR   VFR Marginal   IFR   IFR Intensif   IFR Très Intensif
Visi : 
Plafond : 
>= 8 km
>= 3000ft
5 à 8 km
1000 à 3000 ft
1500m à 5 km
500 à 1000 ft
800 à 1500m
200 à 500 ft
< 800m
< 200 ft
Symboles :   Orages  Brouillard  Fortes neiges  Fortes précipitations  Vent > 20 kt
SIGMETs :   Divers  Orages  Givrage  Turbulence  Onde Orograph.  Cendres Volcan.






- Altitude de l'aérodrome : 38 ft
- Code IATA : BOH


EGHH - Bournemouth

DERNIER METAR :
  • 050720Z 17010KT 9999 SCT014 SCT024 17/13 Q1007

METARs EXPIRÉS :
  • 050650Z 18010KT 9999 FEW014 SCT024 16/13 Q1007
  • 050620Z 18009KT 9999 FEW012 SCT018 16/14 Q1007
  • 050550Z 18007KT 9999 SCT012 SCT020 16/14 Q1007
  • 050520Z 18009KT 9999 FEW011 SCT020 16/14 Q1008
  • 050450Z 18007KT 9999 FEW013 SCT020 16/13 Q1008

TAF TAF EGHH
Valide du 05 à 06h jusqu'au 05 à 15h UTC


050526Z 0506/0515 18012KT 9999 FEW014 SCT020
PROB30
TEMPO 0506/0508 BKN014
PROB30
TEMPO 0508/0510 8000 -RA BKN014
TEMPO 0510/0515 6000 RA SHRA BKN014
PROB30
TEMPO 0511/0515 19015G25KT 4000 +RA BKN008
ATIS : +44 1202 364 151
Météo : +44 1202 364 158 (TAF)



MET'MAP, la Météo Aéronautique d'un coup d'oeil ! - Copyright ORBIFLY Décembre 2007 - Disclaimer

ORBIFLY MET'MAP TEAM :

Programmation & Développement : Alexandra Zaïnal
Sur une idée originale de : Baudouin d'Aumeries
Assistance à la programmation : Marc-Olivier Méhu
Soutien technique & logistique : Manuel Goepfert

Contact : metmap@orbifly.com




SOURCES & CREDITS :

   NOAA